sensor_id;sensor_type;location;lat;lon;timestamp;pressure;altitude;pressure_sealevel;temperature;humidity
71638;BME280;59485;43.542;-5.676;2023-04-07T00:00:22;101828.34;;;10.86;100.00
71638;BME280;59485;43.542;-5.676;2023-04-07T00:02:48;101817.72;;;10.83;100.00
71638;BME280;59485;43.542;-5.676;2023-04-07T00:05:15;101813.28;;;10.82;100.00
71638;BME280;59485;43.542;-5.676;2023-04-07T00:07:40;101815.50;;;10.86;100.00
71638;BME280;59485;43.542;-5.676;2023-04-07T00:10:06;101818.09;;;10.88;100.00
71638;BME280;59485;43.542;-5.676;2023-04-07T00:12:32;101815.81;;;10.83;100.00
71638;BME280;59485;43.542;-5.676;2023-04-07T00:14:58;101805.22;;;10.80;100.00
71638;BME280;59485;43.542;-5.676;2023-04-07T00:17:24;101814.81;;;10.84;100.00
71638;BME280;59485;43.542;-5.676;2023-04-07T00:19:49;101804.84;;;10.83;100.00
71638;BME280;59485;43.542;-5.676;2023-04-07T00:22:15;101809.84;;;10.88;100.00
71638;BME280;59485;43.542;-5.676;2023-04-07T00:24:40;101807.13;;;10.88;100.00
71638;BME280;59485;43.542;-5.676;2023-04-07T00:27:06;101793.22;;;10.81;100.00
71638;BME280;59485;43.542;-5.676;2023-04-07T00:29:32;101808.97;;;10.79;100.00
71638;BME280;59485;43.542;-5.676;2023-04-07T00:31:57;101811.41;;;10.82;100.00
71638;BME280;59485;43.542;-5.676;2023-04-07T00:34:23;101798.00;;;10.79;100.00
71638;BME280;59485;43.542;-5.676;2023-04-07T00:36:48;101799.03;;;10.78;100.00
71638;BME280;59485;43.542;-5.676;2023-04-07T00:39:19;101800.91;;;10.78;100.00
71638;BME280;59485;43.542;-5.676;2023-04-07T00:41:46;101806.06;;;10.81;100.00
71638;BME280;59485;43.542;-5.676;2023-04-07T00:44:12;101803.50;;;10.79;100.00
71638;BME280;59485;43.542;-5.676;2023-04-07T00:46:38;101799.19;;;10.77;100.00
71638;BME280;59485;43.542;-5.676;2023-04-07T00:49:05;101794.72;;;10.76;100.00
71638;BME280;59485;43.542;-5.676;2023-04-07T00:51:31;101798.50;;;10.75;100.00
71638;BME280;59485;43.542;-5.676;2023-04-07T00:53:57;101782.91;;;10.75;100.00
71638;BME280;59485;43.542;-5.676;2023-04-07T00:56:23;101785.63;;;10.75;100.00
71638;BME280;59485;43.542;-5.676;2023-04-07T00:58:48;101786.16;;;10.71;100.00
71638;BME280;59485;43.542;-5.676;2023-04-07T01:01:30;101779.44;;;10.65;100.00
71638;BME280;59485;43.542;-5.676;2023-04-07T01:04:04;101787.34;;;10.68;100.00
71638;BME280;59485;43.542;-5.676;2023-04-07T01:06:37;101779.78;;;10.62;100.00
71638;BME280;59485;43.542;-5.676;2023-04-07T01:09:13;101777.38;;;10.67;100.00
71638;BME280;59485;43.542;-5.676;2023-04-07T01:11:52;101777.53;;;10.58;100.00
71638;BME280;59485;43.542;-5.676;2023-04-07T01:14:22;101757.97;;;10.52;100.00
71638;BME280;59485;43.542;-5.676;2023-04-07T01:16:50;101766.03;;;10.46;100.00
71638;BME280;59485;43.542;-5.676;2023-04-07T01:19:38;101762.72;;;10.34;100.00
71638;BME280;59485;43.542;-5.676;2023-04-07T01:22:10;101755.78;;;10.22;100.00
71638;BME280;59485;43.542;-5.676;2023-04-07T01:27:35;101754.47;;;10.00;100.00
71638;BME280;59485;43.542;-5.676;2023-04-07T01:30:02;101756.81;;;9.95;100.00
71638;BME280;59485;43.542;-5.676;2023-04-07T01:32:32;101754.44;;;9.92;100.00
71638;BME280;59485;43.542;-5.676;2023-04-07T01:35:01;101750.19;;;9.72;100.00
71638;BME280;59485;43.542;-5.676;2023-04-07T01:37:27;101748.50;;;9.53;100.00
71638;BME280;59485;43.542;-5.676;2023-04-07T01:39:53;101741.50;;;9.33;100.00
71638;BME280;59485;43.542;-5.676;2023-04-07T01:42:19;101746.44;;;9.29;100.00
71638;BME280;59485;43.542;-5.676;2023-04-07T01:44:46;101744.72;;;9.28;100.00
71638;BME280;59485;43.542;-5.676;2023-04-07T01:47:13;101742.94;;;9.19;100.00
71638;BME280;59485;43.542;-5.676;2023-04-07T01:49:40;101744.75;;;9.11;100.00
71638;BME280;59485;43.542;-5.676;2023-04-07T01:52:07;101733.72;;;9.02;100.00
71638;BME280;59485;43.542;-5.676;2023-04-07T01:54:33;101739.41;;;9.09;100.00
71638;BME280;59485;43.542;-5.676;2023-04-07T01:56:59;101724.81;;;9.00;100.00
71638;BME280;59485;43.542;-5.676;2023-04-07T01:59:26;101726.28;;;8.95;100.00
71638;BME280;59485;43.542;-5.676;2023-04-07T02:01:52;101726.63;;;8.92;100.00
71638;BME280;59485;43.542;-5.676;2023-04-07T02:04:31;101725.59;;;8.93;100.00
71638;BME280;59485;43.542;-5.676;2023-04-07T02:07:07;101731.53;;;8.88;100.00
71638;BME280;59485;43.542;-5.676;2023-04-07T02:09:37;101739.34;;;8.83;100.00
71638;BME280;59485;43.542;-5.676;2023-04-07T02:12:05;101726.91;;;8.89;100.00
71638;BME280;59485;43.542;-5.676;2023-04-07T02:14:32;101722.47;;;8.88;100.00
71638;BME280;59485;43.542;-5.676;2023-04-07T02:16:59;101715.13;;;8.71;100.00
71638;BME280;59485;43.542;-5.676;2023-04-07T02:19:25;101719.34;;;8.65;100.00
71638;BME280;59485;43.542;-5.676;2023-04-07T02:21:52;101722.84;;;8.57;100.00
71638;BME280;59485;43.542;-5.676;2023-04-07T02:24:19;101706.66;;;8.46;100.00
71638;BME280;59485;43.542;-5.676;2023-04-07T02:26:46;101714.72;;;8.48;100.00
71638;BME280;59485;43.542;-5.676;2023-04-07T02:29:12;101707.97;;;8.42;100.00
71638;BME280;59485;43.542;-5.676;2023-04-07T02:31:37;101706.59;;;8.28;100.00
71638;BME280;59485;43.542;-5.676;2023-04-07T02:34:03;101705.78;;;8.18;100.00
71638;BME280;59485;43.542;-5.676;2023-04-07T02:36:28;101696.94;;;8.07;100.00
71638;BME280;59485;43.542;-5.676;2023-04-07T02:38:55;101701.66;;;7.87;100.00
71638;BME280;59485;43.542;-5.676;2023-04-07T02:41:20;101699.94;;;7.86;100.00
71638;BME280;59485;43.542;-5.676;2023-04-07T02:43:46;101713.88;;;7.83;100.00
71638;BME280;59485;43.542;-5.676;2023-04-07T02:46:12;101703.13;;;7.72;100.00
71638;BME280;59485;43.542;-5.676;2023-04-07T02:48:37;101714.03;;;7.72;100.00
71638;BME280;59485;43.542;-5.676;2023-04-07T02:51:03;101708.63;;;7.62;100.00
71638;BME280;59485;43.542;-5.676;2023-04-07T02:53:28;101712.66;;;7.58;100.00
71638;BME280;59485;43.542;-5.676;2023-04-07T02:55:54;101712.34;;;7.61;100.00
71638;BME280;59485;43.542;-5.676;2023-04-07T02:58:19;101704.91;;;7.53;100.00
71638;BME280;59485;43.542;-5.676;2023-04-07T03:00:47;101706.50;;;7.56;100.00
71638;BME280;59485;43.542;-5.676;2023-04-07T03:03:13;101690.59;;;7.42;100.00
71638;BME280;59485;43.542;-5.676;2023-04-07T03:05:38;101693.44;;;7.50;100.00
71638;BME280;59485;43.542;-5.676;2023-04-07T03:08:04;101699.19;;;7.47;100.00
71638;BME280;59485;43.542;-5.676;2023-04-07T03:10:29;101696.31;;;7.48;100.00
71638;BME280;59485;43.542;-5.676;2023-04-07T03:12:55;101698.03;;;7.59;100.00
71638;BME280;59485;43.542;-5.676;2023-04-07T03:15:21;101684.84;;;7.45;100.00
71638;BME280;59485;43.542;-5.676;2023-04-07T03:17:47;101681.53;;;7.51;100.00
71638;BME280;59485;43.542;-5.676;2023-04-07T03:20:12;101684.69;;;7.46;100.00
71638;BME280;59485;43.542;-5.676;2023-04-07T03:22:38;101683.41;;;7.41;100.00
71638;BME280;59485;43.542;-5.676;2023-04-07T03:25:04;101684.72;;;7.37;100.00
71638;BME280;59485;43.542;-5.676;2023-04-07T03:27:29;101673.91;;;7.45;100.00
71638;BME280;59485;43.542;-5.676;2023-04-07T03:29:55;101678.25;;;7.38;100.00
71638;BME280;59485;43.542;-5.676;2023-04-07T03:32:21;101683.41;;;7.41;100.00
71638;BME280;59485;43.542;-5.676;2023-04-07T03:34:47;101676.25;;;7.40;100.00
71638;BME280;59485;43.542;-5.676;2023-04-07T03:37:12;101681.97;;;7.37;100.00
71638;BME280;59485;43.542;-5.676;2023-04-07T03:39:38;101667.94;;;7.32;100.00
71638;BME280;59485;43.542;-5.676;2023-04-07T03:42:05;101669.09;;;7.29;100.00
71638;BME280;59485;43.542;-5.676;2023-04-07T03:44:30;101683.72;;;7.38;100.00
71638;BME280;59485;43.542;-5.676;2023-04-07T03:46:56;101673.19;;;7.43;100.00
71638;BME280;59485;43.542;-5.676;2023-04-07T03:49:22;101668.63;;;7.34;100.00
71638;BME280;59485;43.542;-5.676;2023-04-07T03:51:47;101673.66;;;7.38;100.00
71638;BME280;59485;43.542;-5.676;2023-04-07T03:54:13;101669.50;;;7.34;100.00
71638;BME280;59485;43.542;-5.676;2023-04-07T03:56:39;101666.34;;;7.39;100.00
71638;BME280;59485;43.542;-5.676;2023-04-07T03:59:04;101668.63;;;7.34;100.00
71638;BME280;59485;43.542;-5.676;2023-04-07T04:01:30;101661.63;;;7.31;100.00
71638;BME280;59485;43.542;-5.676;2023-04-07T04:03:56;101666.94;;;7.33;100.00
71638;BME280;59485;43.542;-5.676;2023-04-07T04:06:21;101657.72;;;7.34;100.00
71638;BME280;59485;43.542;-5.676;2023-04-07T04:08:47;101658.19;;;7.29;100.00
71638;BME280;59485;43.542;-5.676;2023-04-07T04:11:12;101651.88;;;7.29;100.00
71638;BME280;59485;43.542;-5.676;2023-04-07T04:13:38;101653.72;;;7.28;100.00
71638;BME280;59485;43.542;-5.676;2023-04-07T04:16:03;101649.16;;;7.19;100.00
71638;BME280;59485;43.542;-5.676;2023-04-07T04:18:29;101639.97;;;7.20;100.00
71638;BME280;59485;43.542;-5.676;2023-04-07T04:20:55;101644.56;;;7.20;100.00
71638;BME280;59485;43.542;-5.676;2023-04-07T04:23:20;101640.72;;;7.12;100.00
71638;BME280;59485;43.542;-5.676;2023-04-07T04:25:45;101639.28;;;7.08;100.00
71638;BME280;59485;43.542;-5.676;2023-04-07T04:28:11;101640.84;;;7.11;100.00
71638;BME280;59485;43.542;-5.676;2023-04-07T04:30:36;101632.94;;;7.18;100.00
71638;BME280;59485;43.542;-5.676;2023-04-07T04:33:02;101628.94;;;7.12;100.00
71638;BME280;59485;43.542;-5.676;2023-04-07T04:35:27;101640.00;;;7.10;100.00
71638;BME280;59485;43.542;-5.676;2023-04-07T04:37:53;101639.56;;;7.15;100.00
71638;BME280;59485;43.542;-5.676;2023-04-07T04:40:19;101630.97;;;7.10;100.00
71638;BME280;59485;43.542;-5.676;2023-04-07T04:42:44;101630.22;;;7.08;100.00
71638;BME280;59485;43.542;-5.676;2023-04-07T04:45:10;101638.84;;;7.13;100.00
71638;BME280;59485;43.542;-5.676;2023-04-07T04:47:36;101638.28;;;7.09;100.00
71638;BME280;59485;43.542;-5.676;2023-04-07T04:50:05;101637.72;;;7.06;100.00
71638;BME280;59485;43.542;-5.676;2023-04-07T04:52:31;101634.28;;;7.04;100.00
71638;BME280;59485;43.542;-5.676;2023-04-07T04:54:56;101634.13;;;7.05;100.00
71638;BME280;59485;43.542;-5.676;2023-04-07T04:57:22;101630.97;;;7.10;100.00
71638;BME280;59485;43.542;-5.676;2023-04-07T04:59:47;101624.66;;;7.09;100.00
71638;BME280;59485;43.542;-5.676;2023-04-07T05:02:13;101631.09;;;7.08;100.00
71638;BME280;59485;43.542;-5.676;2023-04-07T05:04:38;101624.97;;;7.06;100.00
71638;BME280;59485;43.542;-5.676;2023-04-07T05:07:04;101633.69;;;7.10;100.00
71638;BME280;59485;43.542;-5.676;2023-04-07T05:09:30;101625.66;;;7.08;100.00
71638;BME280;59485;43.542;-5.676;2023-04-07T05:11:55;101633.84;;;6.99;100.00
71638;BME280;59485;43.542;-5.676;2023-04-07T05:14:22;101631.56;;;7.04;100.00
71638;BME280;59485;43.542;-5.676;2023-04-07T05:16:47;101635.00;;;7.06;100.00
71638;BME280;59485;43.542;-5.676;2023-04-07T05:19:13;101636.28;;;7.02;100.00
71638;BME280;59485;43.542;-5.676;2023-04-07T05:21:39;101623.13;;;6.97;100.00
71638;BME280;59485;43.542;-5.676;2023-04-07T05:24:04;101632.97;;;6.98;100.00
71638;BME280;59485;43.542;-5.676;2023-04-07T05:26:30;101628.69;;;6.96;100.00
71638;BME280;59485;43.542;-5.676;2023-04-07T05:28:56;101634.44;;;6.93;100.00
71638;BME280;59485;43.542;-5.676;2023-04-07T05:31:21;101636.56;;;6.89;100.00
71638;BME280;59485;43.542;-5.676;2023-04-07T05:33:47;101619.09;;;6.82;100.00
71638;BME280;59485;43.542;-5.676;2023-04-07T05:36:12;101628.72;;;6.86;100.00
71638;BME280;59485;43.542;-5.676;2023-04-07T05:38:38;101627.59;;;6.79;100.00
71638;BME280;59485;43.542;-5.676;2023-04-07T05:41:03;101640.91;;;6.82;100.00
71638;BME280;59485;43.542;-5.676;2023-04-07T05:43:29;101638.16;;;6.82;100.00
71638;BME280;59485;43.542;-5.676;2023-04-07T05:45:56;101636.44;;;6.81;100.00
71638;BME280;59485;43.542;-5.676;2023-04-07T05:48:22;101634.44;;;6.83;100.00
71638;BME280;59485;43.542;-5.676;2023-04-07T05:50:47;101632.31;;;6.77;100.00
71638;BME280;59485;43.542;-5.676;2023-04-07T05:53:13;101631.31;;;6.78;100.00
71638;BME280;59485;43.542;-5.676;2023-04-07T05:55:41;101632.16;;;6.78;100.00
71638;BME280;59485;43.542;-5.676;2023-04-07T05:58:07;101637.75;;;6.77;100.00
71638;BME280;59485;43.542;-5.676;2023-04-07T06:00:32;101628.44;;;6.70;100.00
71638;BME280;59485;43.542;-5.676;2023-04-07T06:02:58;101632.00;;;6.80;100.00
71638;BME280;59485;43.542;-5.676;2023-04-07T06:05:23;101637.03;;;6.75;100.00
71638;BME280;59485;43.542;-5.676;2023-04-07T06:07:49;101630.72;;;6.74;100.00
71638;BME280;59485;43.542;-5.676;2023-04-07T06:10:14;101637.03;;;6.75;100.00
71638;BME280;59485;43.542;-5.676;2023-04-07T06:12:40;101638.75;;;6.76;100.00
71638;BME280;59485;43.542;-5.676;2023-04-07T06:15:06;101643.63;;;6.82;100.00
71638;BME280;59485;43.542;-5.676;2023-04-07T06:17:31;101638.75;;;6.76;100.00
71638;BME280;59485;43.542;-5.676;2023-04-07T06:19:57;101647.94;;;6.75;100.00
71638;BME280;59485;43.542;-5.676;2023-04-07T06:22:22;101648.34;;;6.80;100.00
71638;BME280;59485;43.542;-5.676;2023-04-07T06:24:48;101650.78;;;6.83;100.00
71638;BME280;59485;43.542;-5.676;2023-04-07T06:27:13;101637.44;;;6.80;100.00
71638;BME280;59485;43.542;-5.676;2023-04-07T06:29:39;101648.22;;;6.82;100.00
71638;BME280;59485;43.542;-5.676;2023-04-07T06:32:04;101651.38;;;6.96;100.00
71638;BME280;59485;43.542;-5.676;2023-04-07T06:34:30;101641.34;;;6.97;100.00
71638;BME280;59485;43.542;-5.676;2023-04-07T06:36:56;101651.78;;;7.01;100.00
71638;BME280;59485;43.542;-5.676;2023-04-07T06:39:21;101646.31;;;7.01;100.00
71638;BME280;59485;43.542;-5.676;2023-04-07T06:41:47;101650.50;;;7.05;100.00
71638;BME280;59485;43.542;-5.676;2023-04-07T06:44:13;101642.00;;;7.08;100.00
71638;BME280;59485;43.542;-5.676;2023-04-07T06:46:38;101656.47;;;7.19;100.00
71638;BME280;59485;43.542;-5.676;2023-04-07T06:49:05;101655.63;;;7.18;100.00
71638;BME280;59485;43.542;-5.676;2023-04-07T06:51:31;101659.22;;;7.19;100.00
71638;BME280;59485;43.542;-5.676;2023-04-07T06:53:56;101651.47;;;7.24;100.00
71638;BME280;59485;43.542;-5.676;2023-04-07T06:56:22;101654.59;;;7.29;100.00
71638;BME280;59485;43.542;-5.676;2023-04-07T06:58:48;101651.25;;;7.35;100.00
71638;BME280;59485;43.542;-5.676;2023-04-07T07:01:15;101661.16;;;7.36;100.00
71638;BME280;59485;43.542;-5.676;2023-04-07T07:03:40;101649.25;;;7.37;100.00
71638;BME280;59485;43.542;-5.676;2023-04-07T07:06:06;101658.13;;;7.48;100.00
71638;BME280;59485;43.542;-5.676;2023-04-07T07:08:32;101645.50;;;7.47;100.00
71638;BME280;59485;43.542;-5.676;2023-04-07T07:10:57;101645.91;;;7.43;100.00
71638;BME280;59485;43.542;-5.676;2023-04-07T07:13:25;101648.34;;;7.56;100.00
71638;BME280;59485;43.542;-5.676;2023-04-07T07:15:51;101644.41;;;7.68;100.00
71638;BME280;59485;43.542;-5.676;2023-04-07T07:18:17;101650.28;;;7.73;100.00
71638;BME280;59485;43.542;-5.676;2023-04-07T07:20:43;101651.38;;;7.80;100.00
71638;BME280;59485;43.542;-5.676;2023-04-07T07:23:09;101640.75;;;7.86;100.00
71638;BME280;59485;43.542;-5.676;2023-04-07T07:25:34;101650.91;;;7.94;100.00
71638;BME280;59485;43.542;-5.676;2023-04-07T07:28:00;101635.75;;;8.00;100.00
71638;BME280;59485;43.542;-5.676;2023-04-07T07:30:25;101636.47;;;8.02;100.00
71638;BME280;59485;43.542;-5.676;2023-04-07T07:32:52;101638.81;;;8.14;100.00
71638;BME280;59485;43.542;-5.676;2023-04-07T07:35:18;101636.09;;;8.14;100.00
71638;BME280;59485;43.542;-5.676;2023-04-07T07:37:44;101640.47;;;8.25;100.00
71638;BME280;59485;43.542;-5.676;2023-04-07T07:40:10;101632.69;;;8.30;100.00
71638;BME280;59485;43.542;-5.676;2023-04-07T07:42:38;101629.75;;;8.41;100.00
71638;BME280;59485;43.542;-5.676;2023-04-07T07:45:04;101629.88;;;8.49;100.00
71638;BME280;59485;43.542;-5.676;2023-04-07T07:47:30;101629.75;;;8.59;100.00
71638;BME280;59485;43.542;-5.676;2023-04-07T07:49:56;101623.19;;;8.70;100.00
71638;BME280;59485;43.542;-5.676;2023-04-07T07:52:21;101616.78;;;8.79;100.00
71638;BME280;59485;43.542;-5.676;2023-04-07T07:54:48;101608.50;;;8.88;100.00
71638;BME280;59485;43.542;-5.676;2023-04-07T07:57:14;101613.06;;;9.06;100.00
71638;BME280;59485;43.542;-5.676;2023-04-07T07:59:40;101614.84;;;9.15;100.00
71638;BME280;59485;43.542;-5.676;2023-04-07T08:02:09;101613.91;;;9.32;100.00
71638;BME280;59485;43.542;-5.676;2023-04-07T08:04:35;101610.75;;;9.45;100.00
71638;BME280;59485;43.542;-5.676;2023-04-07T08:07:02;101612.00;;;9.58;100.00
71638;BME280;59485;43.542;-5.676;2023-04-07T08:09:27;101604.53;;;9.68;100.00
71638;BME280;59485;43.542;-5.676;2023-04-07T08:11:53;101602.06;;;9.83;100.00
71638;BME280;59485;43.542;-5.676;2023-04-07T08:14:18;101598.31;;;9.92;100.00
71638;BME280;59485;43.542;-5.676;2023-04-07T08:16:44;101592.53;;;10.11;100.00
71638;BME280;59485;43.542;-5.676;2023-04-07T08:19:11;101597.75;;;10.39;100.00
71638;BME280;59485;43.542;-5.676;2023-04-07T08:21:37;101594.69;;;10.58;100.00
71638;BME280;59485;43.542;-5.676;2023-04-07T08:24:03;101584.59;;;10.83;100.00
71638;BME280;59485;43.542;-5.676;2023-04-07T08:26:29;101584.75;;;11.06;100.00
71638;BME280;59485;43.542;-5.676;2023-04-07T08:28:54;101577.16;;;11.24;100.00
71638;BME280;59485;43.542;-5.676;2023-04-07T08:31:20;101565.63;;;11.37;100.00
71638;BME280;59485;43.542;-5.676;2023-04-07T08:33:46;101571.75;;;11.55;100.00
71638;BME280;59485;43.542;-5.676;2023-04-07T08:36:11;101561.06;;;11.68;100.00
71638;BME280;59485;43.542;-5.676;2023-04-07T08:38:37;101565.81;;;11.82;100.00
71638;BME280;59485;43.542;-5.676;2023-04-07T08:41:13;101548.59;;;11.96;100.00
71638;BME280;59485;43.542;-5.676;2023-04-07T08:43:43;101549.41;;;12.05;100.00
71638;BME280;59485;43.542;-5.676;2023-04-07T08:46:11;101550.03;;;12.15;100.00
71638;BME280;59485;43.542;-5.676;2023-04-07T08:48:38;101540.00;;;12.22;100.00
71638;BME280;59485;43.542;-5.676;2023-04-07T08:51:07;101545.38;;;12.38;100.00
71638;BME280;59485;43.542;-5.676;2023-04-07T08:53:43;101540.84;;;12.46;100.00
71638;BME280;59485;43.542;-5.676;2023-04-07T08:56:15;101534.31;;;12.47;100.00
71638;BME280;59485;43.542;-5.676;2023-04-07T08:58:41;101530.81;;;12.53;100.00
71638;BME280;59485;43.542;-5.676;2023-04-07T09:01:08;101530.97;;;12.59;100.00
71638;BME280;59485;43.542;-5.676;2023-04-07T09:03:33;101524.84;;;12.49;100.00
71638;BME280;59485;43.542;-5.676;2023-04-07T09:06:00;101526.59;;;12.65;100.00
71638;BME280;59485;43.542;-5.676;2023-04-07T09:08:26;101512.38;;;12.61;100.00
71638;BME280;59485;43.542;-5.676;2023-04-07T09:10:53;101528.56;;;12.79;100.00
71638;BME280;59485;43.542;-5.676;2023-04-07T09:13:19;101518.97;;;12.90;100.00
71638;BME280;59485;43.542;-5.676;2023-04-07T09:15:44;101518.78;;;12.91;100.00
71638;BME280;59485;43.542;-5.676;2023-04-07T09:18:10;101518.22;;;12.96;100.00
71638;BME280;59485;43.542;-5.676;2023-04-07T09:23:27;101500.19;;;13.08;100.00
71638;BME280;59485;43.542;-5.676;2023-04-07T09:25:54;101505.16;;;13.12;100.00
71638;BME280;59485;43.542;-5.676;2023-04-07T09:28:19;101489.59;;;13.20;100.00
71638;BME280;59485;43.542;-5.676;2023-04-07T09:30:52;101503.28;;;13.28;100.00
71638;BME280;59485;43.542;-5.676;2023-04-07T09:33:28;101497.44;;;13.08;100.00
71638;BME280;59485;43.542;-5.676;2023-04-07T09:35:54;101502.69;;;13.18;100.00
71638;BME280;59485;43.542;-5.676;2023-04-07T09:38:20;101502.41;;;13.12;100.00
71638;BME280;59485;43.542;-5.676;2023-04-07T09:40:46;101502.47;;;13.04;100.00
71638;BME280;59485;43.542;-5.676;2023-04-07T09:43:17;101507.31;;;13.02;100.00
71638;BME280;59485;43.542;-5.676;2023-04-07T09:45:43;101504.84;;;13.07;100.00
71638;BME280;59485;43.542;-5.676;2023-04-07T09:48:20;101503.13;;;13.06;100.00
71638;BME280;59485;43.542;-5.676;2023-04-07T09:50:47;101499.81;;;13.11;100.00
71638;BME280;59485;43.542;-5.676;2023-04-07T09:53:16;101503.44;;;13.11;100.00
71638;BME280;59485;43.542;-5.676;2023-04-07T09:55:43;101507.22;;;13.10;100.00
71638;BME280;59485;43.542;-5.676;2023-04-07T09:58:12;101493.28;;;13.12;100.00
71638;BME280;59485;43.542;-5.676;2023-04-07T10:00:39;101501.91;;;13.09;100.00
71638;BME280;59485;43.542;-5.676;2023-04-07T10:03:06;101497.94;;;13.11;100.00
71638;BME280;59485;43.542;-5.676;2023-04-07T10:05:33;101504.28;;;13.12;100.00
71638;BME280;59485;43.542;-5.676;2023-04-07T10:08:00;101497.06;;;13.11;100.00
71638;BME280;59485;43.542;-5.676;2023-04-07T10:10:26;101492.53;;;13.18;100.00
71638;BME280;59485;43.542;-5.676;2023-04-07T10:12:53;101489.69;;;13.26;100.00
71638;BME280;59485;43.542;-5.676;2023-04-07T10:15:22;101491.47;;;13.34;100.00
71638;BME280;59485;43.542;-5.676;2023-04-07T10:17:48;101475.47;;;13.23;100.00
71638;BME280;59485;43.542;-5.676;2023-04-07T10:20:16;101476.59;;;13.28;100.00
71638;BME280;59485;43.542;-5.676;2023-04-07T10:22:46;101472.44;;;13.32;100.00
71638;BME280;59485;43.542;-5.676;2023-04-07T10:25:15;101467.66;;;13.26;100.00
71638;BME280;59485;43.542;-5.676;2023-04-07T10:27:50;101472.97;;;13.28;100.00
71638;BME280;59485;43.542;-5.676;2023-04-07T10:30:28;101456.28;;;13.29;100.00
71638;BME280;59485;43.542;-5.676;2023-04-07T10:32:54;101457.09;;;13.44;100.00
71638;BME280;59485;43.542;-5.676;2023-04-07T10:35:21;101464.63;;;13.36;100.00
71638;BME280;59485;43.542;-5.676;2023-04-07T10:40:31;101454.66;;;13.35;100.00
71638;BME280;59485;43.542;-5.676;2023-04-07T10:42:57;101454.81;;;13.48;100.00
71638;BME280;59485;43.542;-5.676;2023-04-07T10:48:11;101446.81;;;13.53;100.00
71638;BME280;59485;43.542;-5.676;2023-04-07T10:50:37;101445.59;;;13.56;100.00
71638;BME280;59485;43.542;-5.676;2023-04-07T10:53:13;101439.78;;;13.65;100.00
71638;BME280;59485;43.542;-5.676;2023-04-07T10:55:40;101436.53;;;13.62;100.00
71638;BME280;59485;43.542;-5.676;2023-04-07T11:00:41;101430.66;;;13.65;100.00
71638;BME280;59485;43.542;-5.676;2023-04-07T11:03:11;101418.78;;;13.64;100.00
71638;BME280;59485;43.542;-5.676;2023-04-07T11:05:39;101434.34;;;13.72;100.00
71638;BME280;59485;43.542;-5.676;2023-04-07T11:08:04;101419.13;;;13.76;100.00
71638;BME280;59485;43.542;-5.676;2023-04-07T11:10:31;101410.78;;;13.90;100.00
71638;BME280;59485;43.542;-5.676;2023-04-07T11:13:07;101416.78;;;13.94;100.00
71638;BME280;59485;43.542;-5.676;2023-04-07T11:15:36;101417.09;;;13.84;100.00
71638;BME280;59485;43.542;-5.676;2023-04-07T11:18:06;101410.78;;;13.90;100.00
71638;BME280;59485;43.542;-5.676;2023-04-07T11:23:07;101403.19;;;13.93;100.00
71638;BME280;59485;43.542;-5.676;2023-04-07T11:25:33;101406.63;;;13.95;100.00
71638;BME280;59485;43.542;-5.676;2023-04-07T11:28:00;101406.00;;;13.99;100.00
71638;BME280;59485;43.542;-5.676;2023-04-07T11:30:26;101408.31;;;13.96;100.00
71638;BME280;59485;43.542;-5.676;2023-04-07T11:32:51;101396.22;;;13.97;100.00
71638;BME280;59485;43.542;-5.676;2023-04-07T11:35:17;101397.03;;;14.12;100.00
71638;BME280;59485;43.542;-5.676;2023-04-07T11:37:42;101398.19;;;14.03;100.00
71638;BME280;59485;43.542;-5.676;2023-04-07T11:40:08;101393.41;;;14.11;100.00
71638;BME280;59485;43.542;-5.676;2023-04-07T11:42:36;101387.34;;;14.22;100.00
71638;BME280;59485;43.542;-5.676;2023-04-07T11:45:15;101396.69;;;14.21;100.00
71638;BME280;59485;43.542;-5.676;2023-04-07T11:47:41;101384.00;;;14.27;100.00
71638;BME280;59485;43.542;-5.676;2023-04-07T11:50:07;101389.97;;;14.31;100.00
71638;BME280;59485;43.542;-5.676;2023-04-07T11:52:47;101380.19;;;14.28;100.00
71638;BME280;59485;43.542;-5.676;2023-04-07T11:55:22;101383.59;;;14.30;100.00
71638;BME280;59485;43.542;-5.676;2023-04-07T11:57:51;101369.06;;;14.43;100.00
71638;BME280;59485;43.542;-5.676;2023-04-07T12:00:17;101382.00;;;14.42;100.00
71638;BME280;59485;43.542;-5.676;2023-04-07T12:02:43;101370.69;;;14.37;100.00
71638;BME280;59485;43.542;-5.676;2023-04-07T12:05:08;101376.13;;;14.52;100.00
71638;BME280;59485;43.542;-5.676;2023-04-07T12:07:36;101370.97;;;14.42;100.00
71638;BME280;59485;43.542;-5.676;2023-04-07T12:10:19;101372.31;;;14.53;100.00
71638;BME280;59485;43.542;-5.676;2023-04-07T12:12:45;101365.09;;;14.52;100.00
71638;BME280;59485;43.542;-5.676;2023-04-07T12:15:11;101360.03;;;14.55;100.00
71638;BME280;59485;43.542;-5.676;2023-04-07T12:17:37;101360.28;;;14.60;100.00
71638;BME280;59485;43.542;-5.676;2023-04-07T12:20:03;101360.19;;;14.75;100.00
71638;BME280;59485;43.542;-5.676;2023-04-07T12:22:29;101359.94;;;14.77;100.00
71638;BME280;59485;43.542;-5.676;2023-04-07T12:24:54;101353.16;;;14.73;100.00
71638;BME280;59485;43.542;-5.676;2023-04-07T12:27:20;101341.81;;;14.61;100.00
71638;BME280;59485;43.542;-5.676;2023-04-07T12:29:46;101357.59;;;14.67;100.00
71638;BME280;59485;43.542;-5.676;2023-04-07T12:32:11;101353.34;;;14.71;100.00
71638;BME280;59485;43.542;-5.676;2023-04-07T12:34:37;101349.38;;;14.80;100.00
71638;BME280;59485;43.542;-5.676;2023-04-07T12:37:03;101349.16;;;14.82;100.00
71638;BME280;59485;43.542;-5.676;2023-04-07T12:39:29;101345.56;;;14.88;100.00
71638;BME280;59485;43.542;-5.676;2023-04-07T12:41:54;101335.41;;;14.95;100.00
71638;BME280;59485;43.542;-5.676;2023-04-07T12:44:22;101347.53;;;14.94;100.00
71638;BME280;59485;43.542;-5.676;2023-04-07T12:46:47;101343.50;;;14.96;100.00
71638;BME280;59485;43.542;-5.676;2023-04-07T12:49:13;101333.97;;;14.99;100.00